Terminal Aerodrome Forecast
Issued by NWS New Orleans/Baton Rouge, LA

Home | Current Version | Previous Version | Text Only | Print | Product List | Glossary On
Versions: 1 2 3 4 5 6 7 8 9 10 11 12 13 14 15 16
641
FTUS44 KLIX 091721
TAFBTR
TAF
KBTR 091721Z 0918/1018 03008KT P6SM SKC
     FM100000 VRB03KT P6SM SKC
     FM101500 08006KT P6SM SKC=

USA.gov is the U.S. government's official web portal to all federal, state and local government web resources and services.